sensor_id;sensor_type;location;lat;lon;timestamp;pressure;altitude;pressure_sealevel;temperature
34023;BMP280;20673;48.980;8.138;2022-08-30T00:01:28;100238.75;;;19.47
34023;BMP280;20673;48.980;8.138;2022-08-30T00:03:56;100236.14;;;19.46
34023;BMP280;20673;48.980;8.138;2022-08-30T00:06:24;100237.27;;;19.45
34023;BMP280;20673;48.980;8.138;2022-08-30T00:08:52;100241.14;;;19.42
34023;BMP280;20673;48.980;8.138;2022-08-30T00:11:26;100238.90;;;19.36
34023;BMP280;20673;48.980;8.138;2022-08-30T00:13:54;100234.98;;;19.39
34023;BMP280;20673;48.980;8.138;2022-08-30T00:16:23;100233.54;;;19.34
34023;BMP280;20673;48.980;8.138;2022-08-30T00:18:49;100233.33;;;19.30
34023;BMP280;20673;48.980;8.138;2022-08-30T00:21:16;100235.00;;;19.29
34023;BMP280;20673;48.980;8.138;2022-08-30T00:23:42;100239.07;;;19.28
34023;BMP280;20673;48.980;8.138;2022-08-30T00:26:08;100233.15;;;19.27
34023;BMP280;20673;48.980;8.138;2022-08-30T00:28:35;100235.68;;;19.26
34023;BMP280;20673;48.980;8.138;2022-08-30T00:31:03;100233.60;;;19.25
34023;BMP280;20673;48.980;8.138;2022-08-30T00:33:30;100242.34;;;19.25
34023;BMP280;20673;48.980;8.138;2022-08-30T00:35:57;100242.14;;;19.27
34023;BMP280;20673;48.980;8.138;2022-08-30T00:38:23;100245.95;;;19.23
34023;BMP280;20673;48.980;8.138;2022-08-30T00:40:51;100242.43;;;19.22
34023;BMP280;20673;48.980;8.138;2022-08-30T00:43:23;100238.38;;;19.22
34023;BMP280;20673;48.980;8.138;2022-08-30T00:45:50;100236.40;;;19.20
34023;BMP280;20673;48.980;8.138;2022-08-30T00:48:17;100236.29;;;19.17
34023;BMP280;20673;48.980;8.138;2022-08-30T00:50:48;100236.91;;;19.13
34023;BMP280;20673;48.980;8.138;2022-08-30T00:53:20;100240.50;;;19.16
34023;BMP280;20673;48.980;8.138;2022-08-30T00:55:47;100236.61;;;19.16
34023;BMP280;20673;48.980;8.138;2022-08-30T00:58:19;100239.47;;;19.14
34023;BMP280;20673;48.980;8.138;2022-08-30T01:00:49;100235.81;;;19.16
34023;BMP280;20673;48.980;8.138;2022-08-30T01:03:18;100237.68;;;19.15
34023;BMP280;20673;48.980;8.138;2022-08-30T01:05:45;100231.75;;;19.13
34023;BMP280;20673;48.980;8.138;2022-08-30T01:08:13;100229.75;;;19.15
34023;BMP280;20673;48.980;8.138;2022-08-30T01:10:41;100227.78;;;19.15
34023;BMP280;20673;48.980;8.138;2022-08-30T01:13:10;100224.83;;;19.16
34023;BMP280;20673;48.980;8.138;2022-08-30T01:15:40;100217.12;;;19.15
34023;BMP280;20673;48.980;8.138;2022-08-30T01:18:07;100216.49;;;19.15
34023;BMP280;20673;48.980;8.138;2022-08-30T01:21:23;100213.39;;;19.14
34023;BMP280;20673;48.980;8.138;2022-08-30T01:23:16;100219.03;;;19.13
34023;BMP280;20673;48.980;8.138;2022-08-30T01:25:47;100220.48;;;19.07
34023;BMP280;20673;48.980;8.138;2022-08-30T01:28:22;100219.73;;;19.04
34023;BMP280;20673;48.980;8.138;2022-08-30T01:30:48;100220.17;;;19.04
34023;BMP280;20673;48.980;8.138;2022-08-30T01:33:14;100223.50;;;19.01
34023;BMP280;20673;48.980;8.138;2022-08-30T01:35:49;100227.46;;;18.99
34023;BMP280;20673;48.980;8.138;2022-08-30T01:38:22;100229.54;;;18.96
34023;BMP280;20673;48.980;8.138;2022-08-30T01:40:49;100227.61;;;18.94
34023;BMP280;20673;48.980;8.138;2022-08-30T01:43:17;100224.99;;;18.92
34023;BMP280;20673;48.980;8.138;2022-08-30T01:45:44;100225.97;;;18.93
34023;BMP280;20673;48.980;8.138;2022-08-30T01:48:10;100224.77;;;18.93
34023;BMP280;20673;48.980;8.138;2022-08-30T01:50:40;100219.84;;;18.92
34023;BMP280;20673;48.980;8.138;2022-08-30T01:53:07;100223.22;;;18.92
34023;BMP280;20673;48.980;8.138;2022-08-30T01:55:34;100221.17;;;18.92
34023;BMP280;20673;48.980;8.138;2022-08-30T01:58:01;100216.72;;;18.86
34023;BMP280;20673;48.980;8.138;2022-08-30T02:00:27;100214.11;;;18.84
34023;BMP280;20673;48.980;8.138;2022-08-30T02:02:53;100212.54;;;18.84
34023;BMP280;20673;48.980;8.138;2022-08-30T02:05:20;100215.60;;;18.85
34023;BMP280;20673;48.980;8.138;2022-08-30T02:07:47;100216.86;;;18.84
34023;BMP280;20673;48.980;8.138;2022-08-30T02:10:13;100218.68;;;18.83
34023;BMP280;20673;48.980;8.138;2022-08-30T02:12:40;100211.20;;;18.82
34023;BMP280;20673;48.980;8.138;2022-08-30T02:15:07;100209.65;;;18.82
34023;BMP280;20673;48.980;8.138;2022-08-30T02:17:34;100206.79;;;18.80
34023;BMP280;20673;48.980;8.138;2022-08-30T02:20:03;100209.48;;;18.80
34023;BMP280;20673;48.980;8.138;2022-08-30T02:22:29;100212.90;;;18.77
34023;BMP280;20673;48.980;8.138;2022-08-30T02:24:55;100208.24;;;18.72
34023;BMP280;20673;48.980;8.138;2022-08-30T02:27:21;100203.01;;;18.68
34023;BMP280;20673;48.980;8.138;2022-08-30T02:29:48;100202.65;;;18.70
34023;BMP280;20673;48.980;8.138;2022-08-30T02:32:15;100208.58;;;18.68
34023;BMP280;20673;48.980;8.138;2022-08-30T02:34:41;100206.70;;;18.66
34023;BMP280;20673;48.980;8.138;2022-08-30T02:37:07;100202.33;;;18.63
34023;BMP280;20673;48.980;8.138;2022-08-30T02:39:33;100202.76;;;18.63
34023;BMP280;20673;48.980;8.138;2022-08-30T02:42:00;100202.84;;;18.63
34023;BMP280;20673;48.980;8.138;2022-08-30T02:44:26;100199.59;;;18.57
34023;BMP280;20673;48.980;8.138;2022-08-30T02:46:52;100195.78;;;18.53
34023;BMP280;20673;48.980;8.138;2022-08-30T02:49:18;100193.76;;;18.53
34023;BMP280;20673;48.980;8.138;2022-08-30T02:51:45;100193.12;;;18.51
34023;BMP280;20673;48.980;8.138;2022-08-30T02:54:12;100189.43;;;18.49
34023;BMP280;20673;48.980;8.138;2022-08-30T02:56:40;100186.87;;;18.44
34023;BMP280;20673;48.980;8.138;2022-08-30T02:59:07;100181.66;;;18.43
34023;BMP280;20673;48.980;8.138;2022-08-30T03:01:33;100182.29;;;18.40
34023;BMP280;20673;48.980;8.138;2022-08-30T03:04:01;100182.40;;;18.39
34023;BMP280;20673;48.980;8.138;2022-08-30T03:06:27;100186.05;;;18.39
34023;BMP280;20673;48.980;8.138;2022-08-30T03:08:53;100186.73;;;18.37
34023;BMP280;20673;48.980;8.138;2022-08-30T03:11:21;100183.75;;;18.39
34023;BMP280;20673;48.980;8.138;2022-08-30T03:13:47;100187.18;;;18.37
34023;BMP280;20673;48.980;8.138;2022-08-30T03:16:14;100181.98;;;18.34
34023;BMP280;20673;48.980;8.138;2022-08-30T03:18:41;100177.97;;;18.33
34023;BMP280;20673;48.980;8.138;2022-08-30T03:21:13;100168.59;;;18.33
34023;BMP280;20673;48.980;8.138;2022-08-30T03:23:40;100173.29;;;18.31
34023;BMP280;20673;48.980;8.138;2022-08-30T03:26:08;100180.00;;;18.30
34023;BMP280;20673;48.980;8.138;2022-08-30T03:28:36;100170.86;;;18.30
34023;BMP280;20673;48.980;8.138;2022-08-30T03:31:03;100171.71;;;18.28
34023;BMP280;20673;48.980;8.138;2022-08-30T03:33:29;100174.68;;;18.28
34023;BMP280;20673;48.980;8.138;2022-08-30T03:35:55;100176.33;;;18.28
34023;BMP280;20673;48.980;8.138;2022-08-30T03:38:21;100177.92;;;18.24
34023;BMP280;20673;48.980;8.138;2022-08-30T03:40:47;100178.22;;;18.23
34023;BMP280;20673;48.980;8.138;2022-08-30T03:43:13;100173.17;;;18.23
34023;BMP280;20673;48.980;8.138;2022-08-30T03:45:40;100176.18;;;18.22
34023;BMP280;20673;48.980;8.138;2022-08-30T03:48:06;100176.21;;;18.20
34023;BMP280;20673;48.980;8.138;2022-08-30T03:50:32;100178.45;;;18.19
34023;BMP280;20673;48.980;8.138;2022-08-30T03:53:00;100177.79;;;18.18
34023;BMP280;20673;48.980;8.138;2022-08-30T03:55:28;100173.23;;;18.17
34023;BMP280;20673;48.980;8.138;2022-08-30T03:57:55;100176.83;;;18.11
34023;BMP280;20673;48.980;8.138;2022-08-30T04:00:21;100177.18;;;18.12
34023;BMP280;20673;48.980;8.138;2022-08-30T04:02:48;100177.17;;;18.10
34023;BMP280;20673;48.980;8.138;2022-08-30T04:05:14;100179.61;;;18.05
34023;BMP280;20673;48.980;8.138;2022-08-30T04:07:40;100175.61;;;18.05
34023;BMP280;20673;48.980;8.138;2022-08-30T04:10:09;100176.84;;;18.02
34023;BMP280;20673;48.980;8.138;2022-08-30T04:12:36;100179.87;;;18.01
34023;BMP280;20673;48.980;8.138;2022-08-30T04:15:04;100177.53;;;17.99
34023;BMP280;20673;48.980;8.138;2022-08-30T04:17:31;100179.08;;;17.97
34023;BMP280;20673;48.980;8.138;2022-08-30T04:19:57;100179.73;;;17.97
34023;BMP280;20673;48.980;8.138;2022-08-30T04:22:23;100182.88;;;17.98
34023;BMP280;20673;48.980;8.138;2022-08-30T04:24:49;100185.03;;;17.94
34023;BMP280;20673;48.980;8.138;2022-08-30T04:27:15;100181.57;;;17.91
34023;BMP280;20673;48.980;8.138;2022-08-30T04:29:43;100181.11;;;17.95
34023;BMP280;20673;48.980;8.138;2022-08-30T04:32:09;100187.18;;;17.92
34023;BMP280;20673;48.980;8.138;2022-08-30T04:34:36;100189.58;;;17.90
34023;BMP280;20673;48.980;8.138;2022-08-30T04:37:02;100196.25;;;17.88
34023;BMP280;20673;48.980;8.138;2022-08-30T04:39:28;100194.54;;;17.87
34023;BMP280;20673;48.980;8.138;2022-08-30T04:41:54;100193.68;;;17.84
34023;BMP280;20673;48.980;8.138;2022-08-30T04:44:20;100183.25;;;17.82
34023;BMP280;20673;48.980;8.138;2022-08-30T04:46:47;100179.45;;;17.79
34023;BMP280;20673;48.980;8.138;2022-08-30T04:49:14;100180.45;;;17.79
34023;BMP280;20673;48.980;8.138;2022-08-30T04:51:40;100177.76;;;17.79
34023;BMP280;20673;48.980;8.138;2022-08-30T04:54:06;100186.83;;;17.74
34023;BMP280;20673;48.980;8.138;2022-08-30T04:56:33;100192.20;;;17.74
34023;BMP280;20673;48.980;8.138;2022-08-30T04:58:59;100190.30;;;17.72
34023;BMP280;20673;48.980;8.138;2022-08-30T05:01:28;100195.12;;;17.73
34023;BMP280;20673;48.980;8.138;2022-08-30T05:03:57;100200.31;;;17.77
34023;BMP280;20673;48.980;8.138;2022-08-30T05:06:27;100208.27;;;17.76
34023;BMP280;20673;48.980;8.138;2022-08-30T05:08:54;100208.87;;;17.75
34023;BMP280;20673;48.980;8.138;2022-08-30T05:11:21;100212.73;;;17.76
34023;BMP280;20673;48.980;8.138;2022-08-30T05:13:47;100218.76;;;17.77
34023;BMP280;20673;48.980;8.138;2022-08-30T05:16:14;100229.64;;;17.81
34023;BMP280;20673;48.980;8.138;2022-08-30T05:18:45;100233.02;;;17.85
34023;BMP280;20673;48.980;8.138;2022-08-30T05:21:22;100232.68;;;17.88
34023;BMP280;20673;48.980;8.138;2022-08-30T05:23:49;100235.54;;;17.91
34023;BMP280;20673;48.980;8.138;2022-08-30T05:26:20;100242.93;;;17.94
34023;BMP280;20673;48.980;8.138;2022-08-30T05:28:48;100239.65;;;17.97
34023;BMP280;20673;48.980;8.138;2022-08-30T05:31:32;100228.84;;;18.03
34023;BMP280;20673;48.980;8.138;2022-08-30T05:33:55;100213.70;;;18.03
34023;BMP280;20673;48.980;8.138;2022-08-30T05:36:28;100212.37;;;18.07
34023;BMP280;20673;48.980;8.138;2022-08-30T05:38:54;100207.79;;;18.12
34023;BMP280;20673;48.980;8.138;2022-08-30T05:41:22;100214.20;;;18.19
34023;BMP280;20673;48.980;8.138;2022-08-30T05:43:52;100213.25;;;18.24
34023;BMP280;20673;48.980;8.138;2022-08-30T05:46:19;100218.72;;;18.29
34023;BMP280;20673;48.980;8.138;2022-08-30T05:48:47;100221.98;;;18.34
34023;BMP280;20673;48.980;8.138;2022-08-30T05:51:21;100223.79;;;18.40
34023;BMP280;20673;48.980;8.138;2022-08-30T05:53:49;100227.45;;;18.44
34023;BMP280;20673;48.980;8.138;2022-08-30T05:56:22;100224.03;;;18.50
34023;BMP280;20673;48.980;8.138;2022-08-30T05:58:47;100225.94;;;18.59
34023;BMP280;20673;48.980;8.138;2022-08-30T06:01:28;100227.95;;;18.61
34023;BMP280;20673;48.980;8.138;2022-08-30T06:03:56;100230.23;;;18.69
34023;BMP280;20673;48.980;8.138;2022-08-30T06:06:23;100219.67;;;18.70
34023;BMP280;20673;48.980;8.138;2022-08-30T06:08:49;100213.78;;;18.75
34023;BMP280;20673;48.980;8.138;2022-08-30T06:11:19;100214.95;;;18.78
34023;BMP280;20673;48.980;8.138;2022-08-30T06:13:46;100215.59;;;18.82
34023;BMP280;20673;48.980;8.138;2022-08-30T06:16:16;100217.53;;;18.88
34023;BMP280;20673;48.980;8.138;2022-08-30T06:18:43;100220.39;;;18.93
34023;BMP280;20673;48.980;8.138;2022-08-30T06:21:29;100228.29;;;18.98
34023;BMP280;20673;48.980;8.138;2022-08-30T06:23:57;100234.14;;;19.07
34023;BMP280;20673;48.980;8.138;2022-08-30T06:26:24;100236.25;;;19.18
34023;BMP280;20673;48.980;8.138;2022-08-30T06:28:51;100236.58;;;19.22
34023;BMP280;20673;48.980;8.138;2022-08-30T06:31:20;100237.55;;;19.24
34023;BMP280;20673;48.980;8.138;2022-08-30T06:33:47;100241.03;;;19.27
34023;BMP280;20673;48.980;8.138;2022-08-30T06:36:17;100243.06;;;19.37
34023;BMP280;20673;48.980;8.138;2022-08-30T06:38:45;100240.33;;;19.39
34023;BMP280;20673;48.980;8.138;2022-08-30T06:41:16;100236.26;;;19.51
34023;BMP280;20673;48.980;8.138;2022-08-30T06:43:43;100239.15;;;19.54
34023;BMP280;20673;48.980;8.138;2022-08-30T06:46:14;100242.95;;;19.56
34023;BMP280;20673;48.980;8.138;2022-08-30T06:48:40;100239.25;;;19.61
34023;BMP280;20673;48.980;8.138;2022-08-30T06:51:07;100244.97;;;19.73
34023;BMP280;20673;48.980;8.138;2022-08-30T06:53:34;100241.02;;;19.78
34023;BMP280;20673;48.980;8.138;2022-08-30T06:56:09;100243.58;;;19.90
34023;BMP280;20673;48.980;8.138;2022-08-30T06:58:38;100250.04;;;20.02
34023;BMP280;20673;48.980;8.138;2022-08-30T07:01:08;100241.53;;;20.19
34023;BMP280;20673;48.980;8.138;2022-08-30T07:03:35;100235.22;;;20.34
34023;BMP280;20673;48.980;8.138;2022-08-30T07:06:01;100236.47;;;20.44
34023;BMP280;20673;48.980;8.138;2022-08-30T07:08:28;100234.98;;;20.59
34023;BMP280;20673;48.980;8.138;2022-08-30T07:10:55;100242.90;;;20.65
34023;BMP280;20673;48.980;8.138;2022-08-30T07:13:22;100242.17;;;20.81
34023;BMP280;20673;48.980;8.138;2022-08-30T07:15:50;100239.87;;;20.94
34023;BMP280;20673;48.980;8.138;2022-08-30T07:18:17;100241.61;;;21.14
34023;BMP280;20673;48.980;8.138;2022-08-30T07:21:09;100245.67;;;21.40
34023;BMP280;20673;48.980;8.138;2022-08-30T07:23:36;100248.76;;;21.64
34023;BMP280;20673;48.980;8.138;2022-08-30T07:26:09;100245.08;;;21.92
34023;BMP280;20673;48.980;8.138;2022-08-30T07:28:38;100246.94;;;22.14
34023;BMP280;20673;48.980;8.138;2022-08-30T07:31:06;100245.99;;;22.12
34023;BMP280;20673;48.980;8.138;2022-08-30T07:33:33;100249.54;;;22.26
34023;BMP280;20673;48.980;8.138;2022-08-30T07:36:00;100250.89;;;22.28
34023;BMP280;20673;48.980;8.138;2022-08-30T07:38:26;100252.31;;;22.32
34023;BMP280;20673;48.980;8.138;2022-08-30T07:40:53;100248.15;;;22.30
34023;BMP280;20673;48.980;8.138;2022-08-30T07:43:19;100250.23;;;22.18
34023;BMP280;20673;48.980;8.138;2022-08-30T07:45:46;100248.64;;;22.25
34023;BMP280;20673;48.980;8.138;2022-08-30T07:48:12;100246.20;;;22.19
34023;BMP280;20673;48.980;8.138;2022-08-30T07:50:45;100247.36;;;22.35
34023;BMP280;20673;48.980;8.138;2022-08-30T07:53:11;100246.72;;;22.46
34023;BMP280;20673;48.980;8.138;2022-08-30T07:55:39;100245.82;;;22.59
34023;BMP280;20673;48.980;8.138;2022-08-30T07:58:05;100245.00;;;22.75
34023;BMP280;20673;48.980;8.138;2022-08-30T08:00:31;100238.53;;;22.66
34023;BMP280;20673;48.980;8.138;2022-08-30T08:03:05;100245.50;;;22.80
34023;BMP280;20673;48.980;8.138;2022-08-30T08:05:38;100246.86;;;23.13
34023;BMP280;20673;48.980;8.138;2022-08-30T08:08:05;100247.84;;;23.12
34023;BMP280;20673;48.980;8.138;2022-08-30T08:10:34;100243.93;;;23.09
34023;BMP280;20673;48.980;8.138;2022-08-30T08:13:00;100243.08;;;23.11
34023;BMP280;20673;48.980;8.138;2022-08-30T08:15:27;100247.28;;;23.25
34023;BMP280;20673;48.980;8.138;2022-08-30T08:17:54;100249.56;;;23.17
34023;BMP280;20673;48.980;8.138;2022-08-30T08:20:20;100248.39;;;23.42
34023;BMP280;20673;48.980;8.138;2022-08-30T08:22:48;100249.18;;;23.63
34023;BMP280;20673;48.980;8.138;2022-08-30T08:25:14;100241.47;;;24.03
34023;BMP280;20673;48.980;8.138;2022-08-30T08:27:41;100238.68;;;24.02
34023;BMP280;20673;48.980;8.138;2022-08-30T08:30:08;100238.92;;;24.48
34023;BMP280;20673;48.980;8.138;2022-08-30T08:32:34;100231.67;;;24.60
34023;BMP280;20673;48.980;8.138;2022-08-30T08:35:00;100237.28;;;24.48
34023;BMP280;20673;48.980;8.138;2022-08-30T08:37:27;100231.12;;;24.60
34023;BMP280;20673;48.980;8.138;2022-08-30T08:39:53;100233.17;;;24.74
34023;BMP280;20673;48.980;8.138;2022-08-30T08:51:10;100228.10;;;25.50
34023;BMP280;20673;48.980;8.138;2022-08-30T08:54:20;100225.51;;;25.86
34023;BMP280;20673;48.980;8.138;2022-08-30T08:56:32;100229.37;;;25.97
34023;BMP280;20673;48.980;8.138;2022-08-30T08:58:58;100228.42;;;26.13
34023;BMP280;20673;48.980;8.138;2022-08-30T09:01:28;100228.86;;;26.21
34023;BMP280;20673;48.980;8.138;2022-08-30T09:04:01;100228.56;;;26.46
34023;BMP280;20673;48.980;8.138;2022-08-30T09:06:52;100226.10;;;26.85
34023;BMP280;20673;48.980;8.138;2022-08-30T09:09:24;100226.61;;;26.90
34023;BMP280;20673;48.980;8.138;2022-08-30T09:11:50;100225.29;;;27.35
34023;BMP280;20673;48.980;8.138;2022-08-30T09:14:24;100223.33;;;27.53
34023;BMP280;20673;48.980;8.138;2022-08-30T09:22:34;100222.36;;;28.35
34023;BMP280;20673;48.980;8.138;2022-08-30T09:27:54;100220.90;;;28.56
34023;BMP280;20673;48.980;8.138;2022-08-30T09:30:28;100215.89;;;28.31
34023;BMP280;20673;48.980;8.138;2022-08-30T09:33:17;100211.63;;;28.65
34023;BMP280;20673;48.980;8.138;2022-08-30T09:35:38;100212.14;;;28.67
34023;BMP280;20673;48.980;8.138;2022-08-30T09:38:09;100211.18;;;28.66
34023;BMP280;20673;48.980;8.138;2022-08-30T09:40:49;100208.61;;;28.57
34023;BMP280;20673;48.980;8.138;2022-08-30T09:43:21;100207.04;;;28.88
34023;BMP280;20673;48.980;8.138;2022-08-30T09:46:06;100207.34;;;29.06
34023;BMP280;20673;48.980;8.138;2022-08-30T09:51:35;100210.25;;;29.55
34023;BMP280;20673;48.980;8.138;2022-08-30T09:54:23;100203.39;;;29.69
34023;BMP280;20673;48.980;8.138;2022-08-30T09:57:09;100198.56;;;30.02
34023;BMP280;20673;48.980;8.138;2022-08-30T10:05:33;100198.69;;;30.71
34023;BMP280;20673;48.980;8.138;2022-08-30T10:08:36;100190.31;;;31.31
34023;BMP280;20673;48.980;8.138;2022-08-30T10:14:13;100178.20;;;32.47
34023;BMP280;20673;48.980;8.138;2022-08-30T10:17:02;100173.75;;;32.88
34023;BMP280;20673;48.980;8.138;2022-08-30T10:19:44;100175.31;;;32.94
34023;BMP280;20673;48.980;8.138;2022-08-30T10:22:36;100174.40;;;33.60
34023;BMP280;20673;48.980;8.138;2022-08-30T10:25:15;100174.31;;;33.53
34023;BMP280;20673;48.980;8.138;2022-08-30T10:27:54;100166.43;;;33.30
34023;BMP280;20673;48.980;8.138;2022-08-30T10:30:21;100161.43;;;33.33
34023;BMP280;20673;48.980;8.138;2022-08-30T10:33:14;100161.47;;;33.38
34023;BMP280;20673;48.980;8.138;2022-08-30T10:35:48;100159.86;;;33.46
34023;BMP280;20673;48.980;8.138;2022-08-30T10:38:30;100158.29;;;33.79
34023;BMP280;20673;48.980;8.138;2022-08-30T10:47:23;100146.47;;;33.41
34023;BMP280;20673;48.980;8.138;2022-08-30T10:49:50;100150.83;;;33.51
34023;BMP280;20673;48.980;8.138;2022-08-30T10:52:35;100151.29;;;33.59
34023;BMP280;20673;48.980;8.138;2022-08-30T10:55:25;100150.48;;;34.06
34023;BMP280;20673;48.980;8.138;2022-08-30T10:57:52;100149.14;;;33.60
34023;BMP280;20673;48.980;8.138;2022-08-30T11:03:53;100143.11;;;33.73
34023;BMP280;20673;48.980;8.138;2022-08-30T11:06:54;100142.79;;;34.22
34023;BMP280;20673;48.980;8.138;2022-08-30T11:15:23;100125.81;;;32.96
34023;BMP280;20673;48.980;8.138;2022-08-30T11:20:44;100129.89;;;32.25
34023;BMP280;20673;48.980;8.138;2022-08-30T11:23:31;100129.08;;;32.57
34023;BMP280;20673;48.980;8.138;2022-08-30T11:26:03;100130.04;;;32.94
34023;BMP280;20673;48.980;8.138;2022-08-30T11:33:53;100125.09;;;33.25
34023;BMP280;20673;48.980;8.138;2022-08-30T11:39:08;100123.55;;;33.91
34023;BMP280;20673;48.980;8.138;2022-08-30T11:41:46;100123.67;;;34.36
34023;BMP280;20673;48.980;8.138;2022-08-30T11:46:53;100116.63;;;34.79
34023;BMP280;20673;48.980;8.138;2022-08-30T11:52:19;100116.14;;;35.18
34023;BMP280;20673;48.980;8.138;2022-08-30T11:55:16;100114.29;;;35.21
34023;BMP280;20673;48.980;8.138;2022-08-30T12:01:16;100104.04;;;34.76
34023;BMP280;20673;48.980;8.138;2022-08-30T12:03:39;100098.07;;;35.29
34023;BMP280;20673;48.980;8.138;2022-08-30T12:06:08;100105.17;;;34.59
34023;BMP280;20673;48.980;8.138;2022-08-30T12:08:46;100095.41;;;34.58
34023;BMP280;20673;48.980;8.138;2022-08-30T12:13:51;100094.83;;;34.90
34023;BMP280;20673;48.980;8.138;2022-08-30T12:16:22;100096.54;;;35.74
34023;BMP280;20673;48.980;8.138;2022-08-30T12:18:54;100089.22;;;35.35
34023;BMP280;20673;48.980;8.138;2022-08-30T12:21:35;100085.24;;;35.35
34023;BMP280;20673;48.980;8.138;2022-08-30T12:24:25;100080.47;;;35.47
34023;BMP280;20673;48.980;8.138;2022-08-30T12:26:52;100082.09;;;35.19
34023;BMP280;20673;48.980;8.138;2022-08-30T12:29:29;100080.75;;;35.49
34023;BMP280;20673;48.980;8.138;2022-08-30T12:32:04;100083.58;;;35.31
34023;BMP280;20673;48.980;8.138;2022-08-30T12:37:28;100080.54;;;35.75
34023;BMP280;20673;48.980;8.138;2022-08-30T12:40:20;100076.15;;;35.40
34023;BMP280;20673;48.980;8.138;2022-08-30T12:43:13;100069.33;;;35.23
34023;BMP280;20673;48.980;8.138;2022-08-30T12:45:41;100067.81;;;35.49
34023;BMP280;20673;48.980;8.138;2022-08-30T12:48:12;100058.63;;;35.91
34023;BMP280;20673;48.980;8.138;2022-08-30T12:50:53;100065.15;;;35.39
34023;BMP280;20673;48.980;8.138;2022-08-30T12:53:33;100059.72;;;35.06
34023;BMP280;20673;48.980;8.138;2022-08-30T12:56:12;100064.36;;;35.11
34023;BMP280;20673;48.980;8.138;2022-08-30T12:58:46;100059.61;;;35.44
34023;BMP280;20673;48.980;8.138;2022-08-30T13:04:24;100053.87;;;35.33
34023;BMP280;20673;48.980;8.138;2022-08-30T13:07:00;100044.09;;;35.28
34023;BMP280;20673;48.980;8.138;2022-08-30T13:09:38;100043.59;;;35.79
34023;BMP280;20673;48.980;8.138;2022-08-30T13:14:49;100039.74;;;36.09
34023;BMP280;20673;48.980;8.138;2022-08-30T13:17:25;100031.35;;;36.38
34023;BMP280;20673;48.980;8.138;2022-08-30T13:20:03;100029.64;;;36.39
34023;BMP280;20673;48.980;8.138;2022-08-30T13:22:36;100021.89;;;36.72
34023;BMP280;20673;48.980;8.138;2022-08-30T13:25:06;100017.98;;;36.87
34023;BMP280;20673;48.980;8.138;2022-08-30T13:27:35;100016.66;;;36.86
34023;BMP280;20673;48.980;8.138;2022-08-30T13:30:13;100015.74;;;36.65
34023;BMP280;20673;48.980;8.138;2022-08-30T13:32:41;100006.90;;;36.69
34023;BMP280;20673;48.980;8.138;2022-08-30T13:35:09;100000.91;;;36.67
34023;BMP280;20673;48.980;8.138;2022-08-30T13:37:38;100001.69;;;36.28
34023;BMP280;20673;48.980;8.138;2022-08-30T13:40:11;100007.66;;;36.97
34023;BMP280;20673;48.980;8.138;2022-08-30T13:42:38;99996.59;;;36.63
34023;BMP280;20673;48.980;8.138;2022-08-30T13:45:06;99997.04;;;35.89
34023;BMP280;20673;48.980;8.138;2022-08-30T13:47:33;100005.72;;;35.78
34023;BMP280;20673;48.980;8.138;2022-08-30T13:49:59;99988.65;;;36.22
34023;BMP280;20673;48.980;8.138;2022-08-30T13:52:25;99992.54;;;36.21
34023;BMP280;20673;48.980;8.138;2022-08-30T13:54:54;99983.64;;;35.83
34023;BMP280;20673;48.980;8.138;2022-08-30T13:57:25;99982.73;;;35.96
34023;BMP280;20673;48.980;8.138;2022-08-30T13:59:52;99976.63;;;36.43
34023;BMP280;20673;48.980;8.138;2022-08-30T14:02:19;99973.17;;;36.19
34023;BMP280;20673;48.980;8.138;2022-08-30T14:04:45;99977.38;;;35.52
34023;BMP280;20673;48.980;8.138;2022-08-30T14:07:11;99971.58;;;35.62
34023;BMP280;20673;48.980;8.138;2022-08-30T14:09:38;99965.14;;;35.13
34023;BMP280;20673;48.980;8.138;2022-08-30T14:12:05;99968.08;;;34.99
34023;BMP280;20673;48.980;8.138;2022-08-30T14:14:31;99960.56;;;35.03
34023;BMP280;20673;48.980;8.138;2022-08-30T14:16:57;99955.89;;;35.27
34023;BMP280;20673;48.980;8.138;2022-08-30T14:19:23;99956.11;;;35.31
34023;BMP280;20673;48.980;8.138;2022-08-30T14:21:50;99955.81;;;35.40
34023;BMP280;20673;48.980;8.138;2022-08-30T14:24:16;99944.39;;;36.04
34023;BMP280;20673;48.980;8.138;2022-08-30T14:26:48;99948.01;;;35.17
34023;BMP280;20673;48.980;8.138;2022-08-30T14:29:21;99951.84;;;34.95
34023;BMP280;20673;48.980;8.138;2022-08-30T14:31:48;99947.63;;;34.99
34023;BMP280;20673;48.980;8.138;2022-08-30T14:34:15;99950.79;;;34.87
34023;BMP280;20673;48.980;8.138;2022-08-30T14:36:44;99938.09;;;35.15
34023;BMP280;20673;48.980;8.138;2022-08-30T14:39:15;99952.66;;;35.03
34023;BMP280;20673;48.980;8.138;2022-08-30T14:41:48;99944.79;;;34.93
34023;BMP280;20673;48.980;8.138;2022-08-30T14:44:17;99945.55;;;35.02
34023;BMP280;20673;48.980;8.138;2022-08-30T14:46:44;99943.58;;;35.29
34023;BMP280;20673;48.980;8.138;2022-08-30T14:49:12;99937.65;;;35.79
34023;BMP280;20673;48.980;8.138;2022-08-30T14:51:40;99926.22;;;35.86
34023;BMP280;20673;48.980;8.138;2022-08-30T14:54:07;99935.00;;;35.62
34023;BMP280;20673;48.980;8.138;2022-08-30T14:56:33;99929.34;;;34.64
34023;BMP280;20673;48.980;8.138;2022-08-30T14:59:01;99931.00;;;35.35
34023;BMP280;20673;48.980;8.138;2022-08-30T15:01:28;99933.40;;;35.33
34023;BMP280;20673;48.980;8.138;2022-08-30T15:03:56;99934.25;;;35.48
34023;BMP280;20673;48.980;8.138;2022-08-30T15:06:23;99929.03;;;35.74
34023;BMP280;20673;48.980;8.138;2022-08-30T15:08:49;99934.40;;;35.65
34023;BMP280;20673;48.980;8.138;2022-08-30T15:11:20;99932.18;;;35.35
34023;BMP280;20673;48.980;8.138;2022-08-30T15:13:47;99931.88;;;35.29
34023;BMP280;20673;48.980;8.138;2022-08-30T15:16:25;99929.58;;;35.90
34023;BMP280;20673;48.980;8.138;2022-08-30T15:18:48;99928.64;;;36.32
34023;BMP280;20673;48.980;8.138;2022-08-30T15:21:32;99931.00;;;36.36
34023;BMP280;20673;48.980;8.138;2022-08-30T15:23:56;99929.89;;;36.23
34023;BMP280;20673;48.980;8.138;2022-08-30T15:26:23;99931.06;;;36.39
34023;BMP280;20673;48.980;8.138;2022-08-30T15:28:51;99919.54;;;35.78
34023;BMP280;20673;48.980;8.138;2022-08-30T15:31:19;99912.16;;;35.69